Santa Margarita, California
Current Conditions -  °F | °C
As of 5:56 PM on Sunday 21 Dec 2014 (Local Time) from KSBP Reporting Station
Overcast Overcast  
Wind Chill: 65°   Ceiling: 2800
Heat Index: 65°   Visibility: 10mi
Dew Point: 55°   Wind: 8mph
Humidity: 70%   Direction: 340°NNW
Pressure: 30.19"   Gusts: NA
Location:  35.39°N, 120.61°W
Report Text: KSBP 220156Z 34007KT 10SM OVC028 18/13 A3019 RMK AO2 SLP223 T01830128
Loading
Personal Weather Stations






























Interactive Weather Map New forecast layout! Learn more

10-Day Weather Forecast

Advertisements
Track Severe Weather on mobile